createdAt,value
2022-09-06T00:01:23.477Z,16.57
2022-09-06T00:03:51.021Z,16.52
2022-09-06T00:06:19.556Z,16.38
2022-09-06T00:08:47.637Z,16.41
2022-09-06T00:11:15.484Z,16.24
2022-09-06T00:13:42.902Z,16.33
2022-09-06T00:16:18.630Z,16.35
2022-09-06T00:18:45.804Z,16.31
2022-09-06T00:21:21.814Z,16.32
2022-09-06T00:23:48.895Z,16.34
2022-09-06T00:26:16.026Z,16.36
2022-09-06T00:28:42.784Z,16.31
2022-09-06T00:31:12.040Z,16.31
2022-09-06T00:33:39.030Z,16.28
2022-09-06T00:36:06.291Z,16.23
2022-09-06T00:38:33.569Z,16.18
2022-09-06T00:41:00.431Z,16.07
2022-09-06T00:43:27.493Z,16.03
2022-09-06T00:45:55.013Z,16.00
2022-09-06T00:48:23.361Z,15.92
2022-09-06T00:50:54.335Z,15.88
2022-09-06T00:53:21.610Z,15.81
2022-09-06T00:55:48.868Z,15.79
2022-09-06T00:58:16.102Z,15.67
2022-09-06T01:00:44.675Z,15.62
2022-09-06T01:03:12.541Z,15.75
2022-09-06T01:06:21.938Z,15.82
2022-09-06T01:09:20.097Z,15.75
2022-09-06T01:12:06.963Z,15.72
2022-09-06T01:14:36.579Z,15.72
2022-09-06T01:17:26.122Z,15.67
2022-09-06T01:20:23.565Z,15.64
2022-09-06T01:23:14.752Z,15.59
2022-09-06T01:26:19.059Z,15.55
2022-09-06T01:28:50.817Z,15.52
2022-09-06T01:31:38.043Z,15.50
2022-09-06T01:34:07.760Z,15.48
2022-09-06T01:36:34.376Z,15.45
2022-09-06T01:39:01.911Z,15.41
2022-09-06T01:41:29.499Z,15.37
2022-09-06T01:43:57.195Z,15.53
2022-09-06T01:46:39.735Z,15.60
2022-09-06T01:49:48.331Z,15.61
2022-09-06T01:52:42.102Z,15.53
2022-09-06T01:55:11.782Z,15.50
2022-09-06T01:57:49.093Z,15.49
2022-09-06T02:00:18.575Z,15.41
2022-09-06T02:03:09.197Z,15.43
2022-09-06T02:05:49.973Z,15.38
2022-09-06T02:08:22.411Z,15.34
2022-09-06T02:11:00.435Z,15.35
2022-09-06T02:13:33.251Z,15.29
2022-09-06T02:16:04.024Z,15.23
2022-09-06T02:18:40.881Z,15.15
2022-09-06T02:21:10.447Z,14.94
2022-09-06T02:23:40.443Z,15.02
2022-09-06T02:26:15.653Z,15.02
2022-09-06T02:28:42.376Z,15.00
2022-09-06T02:31:22.270Z,14.97
2022-09-06T02:33:51.185Z,15.01
2022-09-06T02:36:18.837Z,15.01
2022-09-06T02:38:46.187Z,14.99
2022-09-06T02:41:16.117Z,14.95
2022-09-06T02:43:43.623Z,15.03
2022-09-06T02:46:10.705Z,15.03
2022-09-06T02:48:37.487Z,15.07
2022-09-06T02:51:08.856Z,15.09
2022-09-06T02:53:36.093Z,15.11
2022-09-06T02:56:03.127Z,15.17
2022-09-06T02:58:30.116Z,15.06
2022-09-06T03:00:56.838Z,15.05
2022-09-06T03:03:24.931Z,15.03
2022-09-06T03:05:53.382Z,14.99
2022-09-06T03:08:21.932Z,14.91
2022-09-06T03:10:53.869Z,14.85
2022-09-06T03:13:20.940Z,14.87
2022-09-06T03:16:05.960Z,14.82
2022-09-06T03:18:33.041Z,14.76
2022-09-06T03:20:59.882Z,14.77
2022-09-06T03:23:28.873Z,14.73
2022-09-06T03:25:56.269Z,14.54
2022-09-06T03:28:23.534Z,14.56
2022-09-06T03:30:51.872Z,14.58
2022-09-06T03:33:19.998Z,14.65
2022-09-06T03:35:58.746Z,14.59
2022-09-06T03:38:27.408Z,14.58
2022-09-06T03:40:54.802Z,14.62
2022-09-06T03:43:23.383Z,14.52
2022-09-06T03:45:55.612Z,14.63
2022-09-06T03:48:23.956Z,14.40
2022-09-06T03:50:54.239Z,14.03
2022-09-06T03:53:22.138Z,13.95
2022-09-06T03:55:51.798Z,14.03
2022-09-06T03:58:20.480Z,14.08
2022-09-06T04:00:47.239Z,14.10
2022-09-06T04:03:14.281Z,14.30
2022-09-06T04:05:44.636Z,14.45
2022-09-06T04:08:11.331Z,14.65
2022-09-06T04:10:38.328Z,14.79
2022-09-06T04:13:05.043Z,14.82
2022-09-06T04:15:31.698Z,14.81
2022-09-06T04:17:58.522Z,14.71
2022-09-06T04:20:25.184Z,14.92
2022-09-06T04:22:51.947Z,14.99
2022-09-06T04:25:18.647Z,15.07
2022-09-06T04:27:45.297Z,15.15
2022-09-06T04:30:12.078Z,15.14
2022-09-06T04:32:38.743Z,15.20
2022-09-06T04:35:06.043Z,15.19
2022-09-06T04:37:32.712Z,15.18
2022-09-06T04:39:59.472Z,15.20
2022-09-06T04:42:26.238Z,15.29
2022-09-06T04:44:52.923Z,15.35
2022-09-06T04:47:19.959Z,15.48
2022-09-06T04:49:49.510Z,15.57
2022-09-06T04:52:16.463Z,15.53
2022-09-06T04:54:43.324Z,15.54
2022-09-06T04:57:10.039Z,15.46
2022-09-06T04:59:36.941Z,15.54
2022-09-06T05:02:03.722Z,15.55
2022-09-06T05:04:30.527Z,15.67
2022-09-06T05:07:02.177Z,15.69
2022-09-06T05:09:29.031Z,15.66
2022-09-06T05:11:56.234Z,15.71
2022-09-06T05:14:23.045Z,15.71
2022-09-06T05:16:50.398Z,15.69
2022-09-06T05:19:17.845Z,15.71
2022-09-06T05:21:45.069Z,15.68
2022-09-06T05:24:12.129Z,15.60
2022-09-06T05:26:38.859Z,15.53
2022-09-06T05:29:06.297Z,15.53
2022-09-06T05:31:34.683Z,15.65
2022-09-06T05:34:01.625Z,15.64
2022-09-06T05:36:29.718Z,15.57
2022-09-06T05:38:57.862Z,15.60
2022-09-06T05:41:25.463Z,15.66
2022-09-06T05:43:52.363Z,15.69
2022-09-06T05:46:19.296Z,15.59
2022-09-06T05:48:55.521Z,15.66
2022-09-06T05:51:22.246Z,15.69
2022-09-06T05:53:48.980Z,15.68
2022-09-06T05:56:16.574Z,15.72
2022-09-06T05:58:43.299Z,15.75
2022-09-06T06:01:21.672Z,15.76
2022-09-06T06:03:54.135Z,15.89
2022-09-06T06:06:22.143Z,15.97
2022-09-06T06:08:48.944Z,16.10
2022-09-06T06:11:16.243Z,16.24
2022-09-06T06:13:43.857Z,16.32
2022-09-06T06:16:15.266Z,16.38
2022-09-06T06:18:42.459Z,16.45
2022-09-06T06:21:10.074Z,16.57
2022-09-06T06:23:36.942Z,16.49
2022-09-06T06:26:03.838Z,16.30
2022-09-06T06:28:31.091Z,16.10
2022-09-06T06:30:57.758Z,16.10
2022-09-06T06:33:24.443Z,16.06
2022-09-06T06:36:17.775Z,16.07
2022-09-06T06:38:46.030Z,16.19
2022-09-06T06:41:14.797Z,16.22
2022-09-06T06:43:41.924Z,16.21
2022-09-06T06:46:11.016Z,16.26
2022-09-06T06:48:41.926Z,16.25
2022-09-06T06:51:10.051Z,16.36
2022-09-06T06:53:36.873Z,16.36
2022-09-06T06:56:19.386Z,16.49
2022-09-06T06:58:54.293Z,16.57
2022-09-06T07:01:22.485Z,16.67
2022-09-06T07:03:49.636Z,16.82
2022-09-06T07:06:17.200Z,17.02
2022-09-06T07:08:43.895Z,17.25
2022-09-06T07:11:13.214Z,17.41
2022-09-06T07:13:40.289Z,17.55
2022-09-06T07:16:13.566Z,17.69
2022-09-06T07:18:43.429Z,17.84
2022-09-06T07:26:31.881Z,18.09
2022-09-06T07:29:00.724Z,18.11
2022-09-06T07:34:16.162Z,18.11
2022-09-06T07:36:42.883Z,18.37
2022-09-06T07:39:09.551Z,18.50
2022-09-06T07:41:36.217Z,18.52
2022-09-06T07:44:03.420Z,18.49
2022-09-06T07:46:30.115Z,18.48
2022-09-06T07:48:56.926Z,18.40
2022-09-06T07:51:23.652Z,18.45
2022-09-06T07:53:57.877Z,18.46
2022-09-06T07:56:30.197Z,18.45
2022-09-06T07:58:57.672Z,18.43
2022-09-06T08:01:30.167Z,18.43
2022-09-06T08:04:08.737Z,18.37
2022-09-06T08:09:25.235Z,18.43
2022-09-06T08:11:52.845Z,18.45
2022-09-06T08:14:20.454Z,18.56
2022-09-06T08:16:47.318Z,18.43
2022-09-06T08:19:14.152Z,18.63
2022-09-06T08:21:40.900Z,18.76
2022-09-06T08:24:12.535Z,18.98
2022-09-06T08:26:40.757Z,19.46
2022-09-06T08:29:08.952Z,19.88
2022-09-06T08:31:38.959Z,20.27
2022-09-06T08:34:06.266Z,20.60
2022-09-06T08:36:33.794Z,21.13
2022-09-06T08:39:03.916Z,21.58
2022-09-06T08:41:52.053Z,21.41
2022-09-06T08:47:19.743Z,21.99
2022-09-06T08:49:54.756Z,22.02
2022-09-06T08:53:06.509Z,21.80
2022-09-06T08:55:42.295Z,21.54
2022-09-06T08:58:21.237Z,21.68
2022-09-06T09:00:58.712Z,22.32
2022-09-06T09:03:36.710Z,22.54
2022-09-06T09:06:10.203Z,22.65
2022-09-06T09:08:55.677Z,22.74
2022-09-06T09:11:25.597Z,23.00
2022-09-06T09:14:26.818Z,23.08
2022-09-06T09:16:56.626Z,23.15
2022-09-06T09:19:23.311Z,23.15
2022-09-06T09:21:50.010Z,22.89
2022-09-06T09:24:16.761Z,22.78
2022-09-06T09:27:11.193Z,22.71
2022-09-06T09:32:46.297Z,22.94
2022-09-06T09:35:41.846Z,23.12
2022-09-06T09:38:12.414Z,23.06
2022-09-06T09:40:50.423Z,23.12
2022-09-06T09:43:22.363Z,23.18
2022-09-06T09:46:07.873Z,23.07
2022-09-06T09:48:34.621Z,23.25
2022-09-06T09:51:27.489Z,23.46
2022-09-06T09:53:59.938Z,23.81
2022-09-06T09:56:37.795Z,24.38
2022-09-06T09:59:16.008Z,24.52
2022-09-06T10:01:42.735Z,24.74
2022-09-06T10:07:19.806Z,24.96
2022-09-06T10:09:50.173Z,24.83
2022-09-06T10:12:19.859Z,24.79
2022-09-06T10:14:49.932Z,24.56
2022-09-06T10:17:38.576Z,24.56
2022-09-06T10:20:10.841Z,24.41
2022-09-06T10:22:49.866Z,24.38
2022-09-06T10:25:25.917Z,24.36
2022-09-06T10:28:19.081Z,24.47
2022-09-06T10:30:57.699Z,24.34
2022-09-06T10:33:31.066Z,24.72
2022-09-06T10:36:02.191Z,24.86
2022-09-06T10:38:42.017Z,24.92
2022-09-06T10:41:34.905Z,24.70
2022-09-06T10:44:36.759Z,24.40
2022-09-06T10:47:11.750Z,24.17
2022-09-06T10:49:41.017Z,24.15
2022-09-06T10:52:13.459Z,24.15
2022-09-06T10:54:41.523Z,24.13
2022-09-06T11:00:13.279Z,24.82
2022-09-06T11:05:46.595Z,25.12
2022-09-06T11:11:17.280Z,24.90
2022-09-06T11:13:44.072Z,24.96
2022-09-06T11:16:22.859Z,25.17
2022-09-06T11:19:05.392Z,25.30
2022-09-06T11:21:35.108Z,25.12
2022-09-06T11:24:25.409Z,25.20
2022-09-06T11:27:07.421Z,25.56
2022-09-06T11:29:35.671Z,25.63
2022-09-06T11:32:24.135Z,25.70
2022-09-06T11:34:56.811Z,25.79
2022-09-06T11:37:27.665Z,25.94
2022-09-06T11:42:51.239Z,25.80
2022-09-06T11:45:40.883Z,25.74
2022-09-06T11:48:34.318Z,25.80
2022-09-06T11:51:10.797Z,25.94
2022-09-06T11:53:49.938Z,25.91
2022-09-06T11:56:30.116Z,25.80
2022-09-06T11:59:03.772Z,25.85
2022-09-06T12:01:30.458Z,26.34
2022-09-06T12:04:05.476Z,26.37
2022-09-06T12:06:40.909Z,26.07
2022-09-06T12:09:46.909Z,25.98
2022-09-06T12:12:41.152Z,26.12
2022-09-06T12:15:32.807Z,26.36
2022-09-06T12:18:00.294Z,26.50
2022-09-06T12:20:53.127Z,26.60
2022-09-06T12:23:34.796Z,26.59
2022-09-06T12:26:02.494Z,26.66
2022-09-06T12:28:38.779Z,26.40
2022-09-06T12:31:28.890Z,26.36
2022-09-06T12:33:57.919Z,26.31
2022-09-06T12:36:30.431Z,26.19
2022-09-06T12:38:58.820Z,26.10
2022-09-06T12:41:28.539Z,26.03
2022-09-06T12:43:56.310Z,26.19
2022-09-06T12:46:25.688Z,26.37
2022-09-06T12:49:11.867Z,26.74
2022-09-06T12:51:41.043Z,26.73
2022-09-06T12:54:20.468Z,26.58
2022-09-06T12:56:47.775Z,26.38
2022-09-06T12:59:24.535Z,26.16
2022-09-06T13:01:56.242Z,26.03
2022-09-06T13:04:41.545Z,26.01
2022-09-06T13:07:15.648Z,25.94
2022-09-06T13:09:49.046Z,25.91
2022-09-06T13:12:26.366Z,26.02
2022-09-06T13:14:56.438Z,26.11
2022-09-06T13:17:25.963Z,26.19
2022-09-06T13:19:52.792Z,26.24
2022-09-06T13:22:42.763Z,26.38
2022-09-06T13:25:18.652Z,26.34
2022-09-06T13:27:56.591Z,26.33
2022-09-06T13:30:37.346Z,26.26
2022-09-06T13:33:07.295Z,26.21
2022-09-06T13:35:38.241Z,26.25
2022-09-06T13:38:35.066Z,26.25
2022-09-06T13:41:12.546Z,26.33
2022-09-06T13:43:45.915Z,26.39
2022-09-06T13:46:12.772Z,26.43
2022-09-06T13:48:39.741Z,26.38
2022-09-06T13:51:08.148Z,26.31
2022-09-06T13:53:35.563Z,26.41
2022-09-06T13:56:02.764Z,26.49
2022-09-06T13:58:29.935Z,26.52
2022-09-06T14:00:56.969Z,26.54
2022-09-06T14:03:31.287Z,26.49
2022-09-06T14:06:00.335Z,26.41
2022-09-06T14:08:38.874Z,26.23
2022-09-06T14:11:15.323Z,26.19
2022-09-06T14:13:42.127Z,26.27
2022-09-06T14:16:08.913Z,26.50
2022-09-06T14:18:36.414Z,26.41
2022-09-06T14:21:05.308Z,26.29
2022-09-06T14:23:32.019Z,26.19
2022-09-06T14:26:00.709Z,26.08
2022-09-06T14:28:28.779Z,26.06
2022-09-06T14:30:55.539Z,26.00
2022-09-06T14:33:22.425Z,26.10
2022-09-06T14:35:49.394Z,26.10
2022-09-06T14:38:16.118Z,26.10
2022-09-06T14:40:44.294Z,26.10
2022-09-06T14:43:11.209Z,26.07
2022-09-06T14:45:37.881Z,26.10
2022-09-06T14:48:05.580Z,26.18
2022-09-06T14:50:32.521Z,26.13
2022-09-06T14:52:59.278Z,25.95
2022-09-06T14:55:28.131Z,25.86
2022-09-06T14:57:55.036Z,25.65
2022-09-06T15:00:22.793Z,25.60
2022-09-06T15:02:49.532Z,25.48
2022-09-06T15:05:16.364Z,25.40
2022-09-06T15:07:43.265Z,25.42
2022-09-06T15:10:10.946Z,25.40
2022-09-06T15:12:38.186Z,25.42
2022-09-06T15:15:05.770Z,25.43
2022-09-06T15:17:34.349Z,25.37
2022-09-06T15:20:01.305Z,25.24
2022-09-06T15:22:28.022Z,25.20
2022-09-06T15:24:54.738Z,25.07
2022-09-06T15:27:21.690Z,24.98
2022-09-06T15:29:48.370Z,24.92
2022-09-06T15:32:15.026Z,24.89
2022-09-06T15:34:41.791Z,24.82
2022-09-06T15:37:08.471Z,24.79
2022-09-06T15:39:35.259Z,24.72
2022-09-06T15:42:01.947Z,24.68
2022-09-06T15:44:28.653Z,24.65
2022-09-06T15:47:00.159Z,24.58
2022-09-06T15:49:28.661Z,24.54
2022-09-06T15:51:57.066Z,24.45
2022-09-06T15:54:42.946Z,24.49
2022-09-06T15:57:09.714Z,24.44
2022-09-06T15:59:36.571Z,24.36
2022-09-06T16:02:03.448Z,24.36
2022-09-06T16:04:30.215Z,24.29
2022-09-06T16:06:56.895Z,24.16
2022-09-06T16:09:23.764Z,24.14
2022-09-06T16:11:50.496Z,24.08
2022-09-06T16:14:17.968Z,23.99
2022-09-06T16:16:44.878Z,23.92
2022-09-06T16:19:12.725Z,23.92
2022-09-06T16:21:41.740Z,23.91
2022-09-06T16:24:11.069Z,23.95
2022-09-06T16:26:40.542Z,23.95
2022-09-06T16:29:08.482Z,23.93
2022-09-06T16:31:40.056Z,23.93
2022-09-06T16:34:08.464Z,23.85
2022-09-06T16:36:35.315Z,23.84
2022-09-06T16:39:02.446Z,23.85
2022-09-06T16:41:46.278Z,23.86
2022-09-06T16:44:17.029Z,23.80
2022-09-06T16:46:48.570Z,23.68
2022-09-06T16:49:17.478Z,23.63
2022-09-06T16:51:44.532Z,23.50
2022-09-06T16:54:11.251Z,23.49
2022-09-06T16:56:39.065Z,23.45
2022-09-06T16:59:08.426Z,23.41
2022-09-06T17:01:36.732Z,23.36
2022-09-06T17:04:05.620Z,23.29
2022-09-06T17:06:34.181Z,23.21
2022-09-06T17:09:01.009Z,23.10
2022-09-06T17:11:28.825Z,23.12
2022-09-06T17:13:56.907Z,23.01
2022-09-06T17:16:43.507Z,23.01
2022-09-06T17:19:11.108Z,22.98
2022-09-06T17:21:39.305Z,22.94
2022-09-06T17:24:06.821Z,22.82
2022-09-06T17:26:36.246Z,22.78
2022-09-06T17:29:03.326Z,22.75
2022-09-06T17:31:30.957Z,22.65
2022-09-06T17:33:59.791Z,22.57
2022-09-06T17:36:31.751Z,22.55
2022-09-06T17:39:04.742Z,22.47
2022-09-06T17:41:40.158Z,22.38
2022-09-06T17:44:10.504Z,22.29
2022-09-06T17:46:41.145Z,22.25
2022-09-06T17:49:10.806Z,22.17
2022-09-06T17:51:37.990Z,22.07
2022-09-06T17:54:06.103Z,22.05
2022-09-06T17:56:34.454Z,22.03
2022-09-06T17:59:07.642Z,22.04
2022-09-06T18:01:37.317Z,21.98
2022-09-06T18:04:09.450Z,21.93
2022-09-06T18:06:39.973Z,21.90
2022-09-06T18:09:14.612Z,21.87
2022-09-06T18:11:45.580Z,21.82
2022-09-06T18:14:18.767Z,21.68
2022-09-06T18:16:47.186Z,21.71
2022-09-06T18:19:15.295Z,21.64
2022-09-06T18:21:41.982Z,21.68
2022-09-06T18:24:10.328Z,21.66
2022-09-06T18:26:37.570Z,21.66
2022-09-06T18:29:07.158Z,21.53
2022-09-06T18:31:34.297Z,21.30
2022-09-06T18:34:01.203Z,21.05
2022-09-06T18:36:31.972Z,20.90
2022-09-06T18:39:04.271Z,20.79
2022-09-06T18:41:51.197Z,20.72
2022-09-06T18:44:18.036Z,20.56
2022-09-06T18:46:44.861Z,20.61
2022-09-06T18:49:14.325Z,20.61
2022-09-06T18:51:41.381Z,20.72
2022-09-06T18:54:08.076Z,20.66
2022-09-06T18:56:34.899Z,20.70
2022-09-06T18:59:02.247Z,20.67
2022-09-06T19:01:30.293Z,20.67
2022-09-06T19:03:57.880Z,20.69
2022-09-06T19:06:25.110Z,20.71
2022-09-06T19:08:53.860Z,20.69
2022-09-06T19:11:22.260Z,20.68
2022-09-06T19:13:53.645Z,20.67
2022-09-06T19:16:21.986Z,20.59
2022-09-06T19:18:49.263Z,20.60
2022-09-06T19:21:19.087Z,20.63
2022-09-06T19:23:47.757Z,20.61
2022-09-06T19:26:19.922Z,20.58
2022-09-06T19:28:53.119Z,20.54
2022-09-06T19:31:19.943Z,20.43
2022-09-06T19:33:48.031Z,20.38
2022-09-06T19:36:15.877Z,20.33
2022-09-06T19:39:02.109Z,20.28
2022-09-06T19:41:30.486Z,20.26
2022-09-06T19:43:58.551Z,20.26
2022-09-06T19:46:26.757Z,20.24
2022-09-06T19:48:58.513Z,20.24
2022-09-06T19:51:25.178Z,20.22
2022-09-06T19:53:53.988Z,20.18
2022-09-06T19:56:23.659Z,20.19
2022-09-06T19:58:59.100Z,20.14
2022-09-06T20:01:29.235Z,20.09
2022-09-06T20:03:56.500Z,19.96
2022-09-06T20:06:23.361Z,19.92
2022-09-06T20:08:52.382Z,19.88
2022-09-06T20:11:24.392Z,19.88
2022-09-06T20:13:51.150Z,19.81
2022-09-06T20:16:20.802Z,19.85
2022-09-06T20:18:48.481Z,19.72
2022-09-06T20:21:17.745Z,19.80
2022-09-06T20:23:49.508Z,19.74
2022-09-06T20:26:16.444Z,19.69
2022-09-06T20:28:44.238Z,19.63
2022-09-06T20:31:13.801Z,19.63
2022-09-06T20:33:40.734Z,19.54
2022-09-06T20:36:10.872Z,19.54
2022-09-06T20:38:42.623Z,19.49
2022-09-06T20:41:13.555Z,19.47
2022-09-06T20:43:41.380Z,19.38
2022-09-06T20:46:12.376Z,19.42
2022-09-06T20:48:44.171Z,19.32
2022-09-06T20:51:19.099Z,19.40
2022-09-06T20:53:56.339Z,19.32
2022-09-06T20:56:28.223Z,19.21
2022-09-06T20:58:57.442Z,19.24
2022-09-06T21:01:26.173Z,19.13
2022-09-06T21:03:58.863Z,19.13
2022-09-06T21:06:27.631Z,19.02
2022-09-06T21:08:55.180Z,19.06
2022-09-06T21:11:22.746Z,18.93
2022-09-06T21:13:53.531Z,18.90
2022-09-06T21:16:24.380Z,18.76
2022-09-06T21:18:57.001Z,18.89
2022-09-06T21:21:24.780Z,18.87
2022-09-06T21:23:51.766Z,18.83
2022-09-06T21:26:18.754Z,18.88
2022-09-06T21:28:47.179Z,18.83
2022-09-06T21:31:25.777Z,18.88
2022-09-06T21:33:57.309Z,18.83
2022-09-06T21:36:31.576Z,18.89
2022-09-06T21:39:01.146Z,18.81
2022-09-06T21:41:29.063Z,18.77
2022-09-06T21:43:58.653Z,18.72
2022-09-06T21:46:32.575Z,18.68
2022-09-06T21:49:05.601Z,18.70
2022-09-06T21:51:32.757Z,18.63
2022-09-06T21:54:03.527Z,18.70
2022-09-06T21:56:30.969Z,18.73
2022-09-06T21:58:58.712Z,18.65
2022-09-06T22:01:28.102Z,18.64
2022-09-06T22:03:55.772Z,18.65
2022-09-06T22:06:26.260Z,18.69
2022-09-06T22:08:54.059Z,18.67
2022-09-06T22:11:26.546Z,18.68
2022-09-06T22:13:53.740Z,18.66
2022-09-06T22:16:22.469Z,18.60
2022-09-06T22:18:49.958Z,18.60
2022-09-06T22:21:20.210Z,18.59
2022-09-06T22:23:55.635Z,18.57
2022-09-06T22:26:23.254Z,18.53
2022-09-06T22:28:57.825Z,18.54
2022-09-06T22:31:27.091Z,18.52
2022-09-06T22:33:54.919Z,18.53
2022-09-06T22:36:23.836Z,18.59
2022-09-06T22:38:57.445Z,18.57
2022-09-06T22:41:26.564Z,18.52
2022-09-06T22:43:54.092Z,18.49
2022-09-06T22:46:21.181Z,18.53
2022-09-06T22:48:49.430Z,18.47
2022-09-06T22:51:16.701Z,18.47
2022-09-06T22:53:43.990Z,18.44
2022-09-06T22:56:11.143Z,18.40
2022-09-06T22:58:38.317Z,18.36
2022-09-06T23:01:10.618Z,18.32
2022-09-06T23:03:38.235Z,18.38
2022-09-06T23:06:05.701Z,18.30
2022-09-06T23:08:35.000Z,18.14
2022-09-06T23:11:13.477Z,18.32
2022-09-06T23:13:44.126Z,18.31
2022-09-06T23:16:19.412Z,18.27
2022-09-06T23:18:47.227Z,18.27
2022-09-06T23:21:17.139Z,18.19
2022-09-06T23:23:44.218Z,18.30
2022-09-06T23:26:30.562Z,18.26
2022-09-06T23:28:58.162Z,18.23
2022-09-06T23:31:27.350Z,18.27
2022-09-06T23:33:58.983Z,18.28
2022-09-06T23:36:26.223Z,18.28
2022-09-06T23:38:53.208Z,18.19
2022-09-06T23:41:20.341Z,18.19
2022-09-06T23:43:47.038Z,18.14
2022-09-06T23:46:17.006Z,18.12
2022-09-06T23:48:43.714Z,18.09
2022-09-06T23:51:11.171Z,18.13
2022-09-06T23:53:38.471Z,18.16
2022-09-06T23:56:05.843Z,18.14
2022-09-06T23:58:32.941Z,18.05
